Latest Weather Observations for Bundaberg

IDQ60801

Issued at 11:32 pm EST Monday 25 January 2021 (issued every 10 minutes, with the page automatically refreshed every 10 minutes)

About weather observations | Map of weather stations | Latest weather observations for QLD | Other Formats
Station Details ID: 039128 Name: BUNDABERG AERO Lat: -24.91 Lon: 152.32 Height: 30.82 m
Data from the previous 72 hours. | See also: Recent months at Bundaberg
Date/Time
EST
Temp
°C
App
Temp
°C
Dew
Point
°C
Rel
Hum
%
Delta-T
°C
Wind Press
QNH
hPa
Press
MSL
hPa
Rain since
9am
mm
Dir  Spd
km/h
Gust
km/h
Spd
kts
Gust
kts
25/11:30pm 22.8 24.7 18.6 77 2.7 SSE 6 6 3 3 1009.5 1009.3 0.0
25/11:00pm 23.6 25.3 18.5 73 3.2 E 7 11 4 6 1009.4 1009.2 0.0
25/10:30pm 23.4 24.6 18.3 73 3.2 E 9 13 5 7 1009.4 1009.2 0.0
25/10:00pm 23.7 24.8 17.9 70 3.6 E 9 11 5 6 1009.7 1009.5 0.0
25/09:30pm 23.9 25.3 17.9 69 3.8 ESE 7 9 4 5 1009.9 1009.7 0.0
25/09:00pm 24.3 24.9 17.8 67 4.1 E 11 17 6 9 1009.6 1009.4 0.0
25/08:30pm 24.5 25.0 18.4 69 3.9 E 13 17 7 9 1009.4 1009.2 0.0
25/08:00pm 24.9 25.5 18.6 68 4.0 E 13 17 7 9 1009.3 1009.1 0.0
25/07:30pm 25.3 25.7 19.0 68 4.0 E 15 24 8 13 1009.2 1009.0 0.0
25/07:00pm 25.7 25.1 18.4 64 4.6 E 19 26 10 14 1008.9 1008.7 0.0
25/06:30pm 26.4 24.6 18.8 63 4.9 ENE 26 35 14 19 1008.5 1008.3 0.0
25/06:00pm 27.0 25.0 18.3 59 5.5 E 26 35 14 19 1008.3 1008.1 0.0
25/05:30pm 27.4 26.2 19.2 61 5.3 E 24 35 13 19 1008.1 1007.9 0.0
25/05:00pm 27.5 26.0 18.5 58 5.8 E 24 33 13 18 1007.8 1007.6 0.0
25/04:30pm 28.0 26.0 18.4 56 6.1 E 26 33 14 18 1007.7 1007.5 0.0
25/04:00pm 28.9 27.3 19.2 55 6.3 E 26 35 14 19 1007.7 1007.5 0.0
25/03:30pm 29.2 26.7 18.0 51 7.1 E 28 39 15 21 1008.0 1007.8 0.0
25/03:00pm 29.1 26.9 17.0 48 7.6 E 24 33 13 18 1008.3 1008.1 0.0
25/02:30pm 29.3 27.2 17.2 48 7.6 E 24 35 13 19 1008.7 1008.5 0.0
25/02:00pm 29.6 27.2 16.4 45 8.3 ESE 24 35 13 19 1008.9 1008.7 0.0
25/01:30pm 29.7 27.5 16.8 45 8.1 E 24 33 13 18 1009.2 1009.0 0.0
25/01:00pm 28.9 26.5 15.4 44 8.3 ESE 22 33 12 18 1009.5 1009.3 0.0
25/12:30pm 29.2 27.6 17.4 49 7.5 E 22 30 12 16 1010.0 1009.8 0.0
25/12:00pm 28.6 26.0 17.8 52 6.9 E 28 35 15 19 1010.3 1010.1 0.0
25/11:30am 29.2 28.5 18.6 52 6.8 ESE 20 33 11 18 1010.9 1010.7 0.0
25/11:00am 27.8 27.0 18.5 57 6.0 E 20 32 11 17 1011.1 1010.9 0.0
25/10:30am 28.3 27.0 17.2 51 7.0 E 20 30 11 16 1011.3 1011.1 0.0
25/10:00am 28.6 27.1 17.8 52 6.9 E 22 33 12 18 1011.2 1011.0 0.0
25/09:30am 28.0 27.3 18.7 57 6.0 ESE 20 26 11 14 1011.5 1011.3 0.0
25/09:00am 27.5 26.5 17.9 55 6.1 E 20 28 11 15 1011.7 1011.5 1.6
25/08:30am 27.1 26.5 18.9 61 5.3 E 20 28 11 15 1011.7 1011.5 1.6
25/08:00am 26.5 27.0 20.1 68 4.2 SE 17 22 9 12 1011.3 1011.1 1.6
25/07:30am 23.9 25.3 20.4 81 2.3 SSE 13 19 7 10 1011.5 1011.3 1.6
25/07:00am 23.3 24.5 20.6 85 1.8 SE 15 17 8 9 1011.4 1011.2 1.6
25/06:30am 22.0 23.4 20.3 90 1.1 SSE 13 17 7 9 1011.4 1011.2 1.6
25/06:00am 20.9 22.9 19.9 94 0.6 SSE 9 13 5 7 1011.2 1011.0 1.6
25/05:30am 20.6 22.1 19.8 95 0.5 SSE 11 15 6 8 1010.8 1010.6 1.6
25/05:00am 20.6 22.0 19.6 94 0.6 SSE 11 17 6 9 1010.6 1010.4 1.6
25/04:30am 20.7 22.2 19.7 94 0.6 SSE 11 15 6 8 1010.5 1010.3 1.6
25/04:00am 20.8 22.0 19.8 94 0.6 SSE 13 19 7 10 1010.3 1010.1 1.6
25/03:30am 20.9 22.0 19.7 93 0.8 SSE 13 17 7 9 1010.2 1010.0 1.6
25/03:00am 21.0 22.5 19.8 93 0.8 SSE 11 17 6 9 1010.3 1010.1 1.6
25/02:30am 21.1 23.1 19.9 93 0.8 SSE 9 13 5 7 1010.5 1010.3 1.6
25/02:00am 21.2 22.7 19.8 92 0.9 SSE 11 13 6 7 1010.6 1010.4 1.6
25/01:30am 21.4 23.0 19.9 91 1.0 SSE 11 15 6 8 1010.9 1010.7 1.6
25/01:00am 21.5 22.9 19.6 89 1.2 SSE 11 15 6 8 1011.4 1011.2 1.6
25/12:30am 21.7 22.8 19.6 88 1.3 SSE 13 19 7 10 1011.5 1011.3 1.6
25/12:00am 21.9 23.1 19.8 88 1.3 S 13 19 7 10 1011.6 1011.4 1.6
 
Date/Time
EST
Temp
°C
App
Temp
°C
Dew
Point
°C
Rel
Hum
%
Delta-T
°C
Wind Press
QNH
hPa
Press
MSL
hPa
Rain since
9am
mm
Dir  Spd
km/h
Gust
km/h
Spd
kts
Gust
kts
24/11:30pm 22.2 23.6 20.3 89 1.2 S 13 19 7 10 1011.8 1011.6 1.6
24/11:00pm 22.4 23.3 20.1 87 1.5 SSE 15 19 8 10 1012.0 1011.8 1.6
24/10:30pm 22.8 24.4 20.7 88 1.4 SE 13 17 7 9 1012.5 1012.3 1.6
24/10:00pm 23.0 23.8 20.7 87 1.5 SE 17 24 9 13 1012.6 1012.4 1.4
24/09:30pm 23.1 23.7 20.2 84 1.9 ESE 17 22 9 12 1012.6 1012.4 1.4
24/09:00pm 23.1 23.1 21.0 88 1.4 ESE 22 28 12 15 1012.5 1012.3 1.4
24/08:59pm 23.1 23.1 21.0 88 1.4 ESE 22 28 12 15 1012.5 1012.3 1.4
24/08:45pm 23.0 21.8 20.9 88 1.4 ESE 28 46 15 25 1012.5 1012.3 1.4
24/08:40pm 23.0 21.8 20.0 83 1.9 ESE 26 46 14 25 1012.4 1012.2 0.8
24/08:38pm 23.3 22.8 19.9 81 2.2 E 22 43 12 23 1012.4 1012.2 0.4
24/08:30pm 25.4 25.8 19.8 71 3.6 E 17 22 9 12 1012.2 1012.0 0.0
24/08:00pm 25.4 25.7 19.5 70 3.8 ESE 17 20 9 11 1011.8 1011.6 0.0
24/07:30pm 25.4 26.0 19.5 70 3.8 E 15 20 8 11 1011.5 1011.3 0.0
24/07:00pm 25.8 25.6 19.4 67 4.1 E 19 24 10 13 1011.2 1011.0 0.0
24/06:30pm 26.2 25.6 18.9 64 4.7 E 20 30 11 16 1011.3 1011.1 0.0
24/06:00pm 26.9 26.0 19.0 62 5.1 E 22 30 12 16 1011.1 1010.9 0.0
24/05:30pm 26.8 26.3 19.2 63 4.9 E 20 26 11 14 1010.6 1010.4 0.0
24/05:00pm 28.3 27.1 19.2 57 5.9 E 24 33 13 18 1010.6 1010.4 0.0
24/04:30pm 28.4 26.0 18.2 54 6.5 E 28 39 15 21 1010.5 1010.3 0.0
24/04:00pm 28.4 25.8 17.9 53 6.7 E 28 35 15 19 1010.3 1010.1 0.0
24/03:30pm 28.9 26.3 17.7 50 7.1 E 28 41 15 22 1010.3 1010.1 0.0
24/03:00pm 29.2 27.0 18.6 52 6.8 E 28 41 15 22 1010.5 1010.3 0.0
24/02:30pm 29.3 26.7 17.8 50 7.3 E 28 35 15 19 1010.9 1010.7 0.0
24/02:00pm 30.0 27.4 16.8 45 8.3 E 26 37 14 20 1011.2 1011.0 0.0
24/01:30pm 29.8 26.6 16.2 43 8.5 E 28 39 15 21 1011.3 1011.1 0.0
24/01:00pm 29.5 26.0 14.5 40 9.1 E 26 35 14 19 1011.5 1011.3 0.0
24/12:30pm 29.6 26.4 14.2 39 9.3 E 24 35 13 19 1011.8 1011.6 0.0
24/12:00pm 29.6 26.2 13.8 38 9.5 E 24 33 13 18 1012.3 1012.1 0.0
24/11:30am 28.7 25.7 14.9 43 8.4 ESE 24 33 13 18 1012.7 1012.5 0.0
24/11:00am 28.3 24.6 14.9 44 8.1 E 28 35 15 19 1013.1 1012.9 0.0
24/10:30am 28.3 25.1 15.2 44 8.0 ESE 26 35 14 19 1013.6 1013.4 0.0
24/10:00am 28.2 25.7 16.1 47 7.5 E 24 39 13 21 1013.8 1013.6 0.0
24/09:30am 27.2 24.0 16.2 51 6.8 ESE 28 35 15 19 1013.8 1013.6 0.0
24/09:00am 27.1 24.6 17.0 54 6.3 ESE 26 37 14 20 1013.8 1013.6 0.0
24/08:30am 27.1 24.1 16.7 53 6.5 ESE 28 37 15 20 1013.7 1013.5 0.0
24/08:00am 26.6 24.6 17.4 57 5.8 ESE 24 35 13 19 1013.5 1013.3 0.0
24/07:30am 25.3 24.8 17.7 62 4.8 SE 17 22 9 12 1013.4 1013.2 0.0
24/07:00am 23.0 23.1 18.3 75 3.0 SSE 15 20 8 11 1013.4 1013.2 0.0
24/06:30am 21.3 21.8 18.3 83 1.9 S 13 20 7 11 1013.2 1013.0 0.0
24/06:00am 20.0 20.2 17.6 86 1.5 S 13 17 7 9 1012.9 1012.7 0.0
24/05:30am 20.1 20.8 17.9 87 1.4 SSW 11 17 6 9 1012.7 1012.5 0.0
24/05:00am 20.3 20.7 18.1 87 1.4 S 13 17 7 9 1012.2 1012.0 0.0
24/04:30am 20.5 20.9 18.1 86 1.5 S 13 20 7 11 1012.0 1011.8 0.0
24/04:00am 20.4 21.1 18.0 86 1.5 S 11 13 6 7 1011.9 1011.7 0.0
24/03:30am 20.2 21.2 17.8 86 1.5 S 9 13 5 7 1012.0 1011.8 0.0
24/03:00am 20.3 20.9 17.7 85 1.6 S 11 15 6 8 1012.3 1012.1 0.0
24/02:30am 20.3 20.8 17.5 84 1.7 S 11 15 6 8 1012.5 1012.3 0.0
24/02:00am 21.0 21.6 17.8 82 2.0 S 11 15 6 8 1012.7 1012.5 0.0
24/01:30am 21.7 22.4 17.9 79 2.4 SSE 11 13 6 7 1012.9 1012.7 0.0
24/01:00am 22.2 23.6 18.6 80 2.3 SSE 9 11 5 6 1013.2 1013.0 0.0
24/12:30am 22.3 23.1 18.1 77 2.6 SSE 11 15 6 8 1013.6 1013.4 0.0
24/12:00am 22.8 23.0 17.7 73 3.2 ESE 13 17 7 9 1013.8 1013.6 0.0
 
Date/Time
EST
Temp
°C
App
Temp
°C
Dew
Point
°C
Rel
Hum
%
Delta-T
°C
Wind Press
QNH
hPa
Press
MSL
hPa
Rain since
9am
mm
Dir  Spd
km/h
Gust
km/h
Spd
kts
Gust
kts
23/11:30pm 23.4 22.2 17.6 70 3.6 ESE 20 28 11 15 1013.9 1013.7 0.0
23/11:00pm 22.5 22.7 17.6 74 3.0 SE 13 17 7 9 1014.3 1014.1 0.0
23/10:30pm 22.5 22.3 17.6 74 3.0 SE 15 17 8 9 1014.4 1014.2 0.0
23/10:00pm 22.4 22.7 17.8 75 2.9 SE 13 17 7 9 1014.4 1014.2 0.0
23/09:30pm 23.2 23.0 17.7 71 3.4 SE 15 20 8 11 1014.5 1014.3 0.0
23/09:00pm 23.6 22.6 17.6 69 3.7 ESE 19 22 10 12 1014.3 1014.1 0.0
23/08:30pm 23.8 22.6 17.5 68 3.9 ESE 20 26 11 14 1014.2 1014.0 0.0
23/08:00pm 24.2 22.6 17.4 65 4.2 ESE 22 32 12 17 1014.0 1013.8 0.0
23/07:30pm 24.2 22.1 17.2 65 4.3 ESE 24 32 13 17 1013.7 1013.5 0.0
23/07:00pm 24.4 21.6 17.4 65 4.4 ESE 28 35 15 19 1013.6 1013.4 0.0
23/06:30pm 25.2 21.6 17.1 60 5.0 ESE 32 41 17 22 1013.2 1013.0 0.0
23/06:00pm 26.2 22.3 16.4 54 6.0 E 32 41 17 22 1012.7 1012.5 0.0
23/05:30pm 25.8 22.3 16.4 56 5.8 ESE 30 43 16 23 1012.3 1012.1 0.0
23/05:00pm 27.4 24.0 16.7 52 6.7 ESE 30 43 16 23 1012.0 1011.8 0.0
23/04:30pm 28.2 24.2 16.1 47 7.5 ESE 32 46 17 25 1011.8 1011.6 0.0
23/04:00pm 28.3 23.9 15.2 44 8.0 ESE 32 41 17 22 1011.7 1011.5 0.0
23/03:30pm 28.2 23.3 13.7 41 8.6 E 32 43 17 23 1011.6 1011.4 0.0
23/03:00pm 28.6 23.7 13.7 40 8.9 E 32 44 17 24 1011.7 1011.5 0.0
23/02:30pm 28.9 23.7 12.8 37 9.5 ESE 32 41 17 22 1011.8 1011.6 0.0
23/02:00pm 29.0 25.1 14.4 41 8.8 E 28 41 15 22 1011.8 1011.6 0.0
23/01:30pm 29.3 25.3 13.1 37 9.6 E 26 43 14 23 1012.1 1011.9 0.0
23/01:00pm 29.3 25.5 12.3 35 10.0 ESE 24 33 13 18 1012.3 1012.1 0.0
23/12:30pm 28.7 25.6 14.5 42 8.6 ESE 24 37 13 20 1012.5 1012.3 0.0
23/12:00pm 28.6 25.1 13.3 39 9.1 ESE 24 32 13 17 1012.8 1012.6 0.0
23/11:30am 28.4 25.5 13.9 41 8.7 ESE 22 35 12 19 1013.2 1013.0 0.0
23/11:00am 27.8 24.5 14.1 43 8.2 ESE 24 33 13 18 1013.6 1013.4 0.0
23/10:30am 28.1 25.4 15.7 46 7.6 E 24 33 13 18 1013.7 1013.5 0.0
23/10:00am 27.3 26.1 15.0 47 7.5 ESE 15 26 8 14 1013.9 1013.7 0.0
23/09:30am 27.2 25.1 15.2 47 7.3 SE 20 32 11 17 1013.9 1013.7 0.0
23/09:00am 26.1 24.8 15.8 53 6.3 SE 17 24 9 13 1014.1 1013.9 0.0
23/08:30am 25.3 25.3 17.2 61 5.0 SSE 13 19 7 10 1014.0 1013.8 0.0
23/08:00am 24.1 24.7 17.6 67 4.1 SSE 11 15 6 8 1013.8 1013.6 0.0
23/07:30am 22.9 23.0 17.4 71 3.4 SSE 13 17 7 9 1013.7 1013.5 0.0
23/07:00am 21.9 22.5 17.7 77 2.6 SSE 11 15 6 8 1013.4 1013.2 0.0
23/06:30am 20.5 20.8 17.1 81 2.1 SSE 11 17 6 9 1013.3 1013.1 0.0
23/06:00am 19.6 19.7 16.6 83 1.8 S 11 15 6 8 1013.0 1012.8 0.0
23/05:30am 19.1 18.7 16.3 84 1.7 S 13 17 7 9 1012.5 1012.3 0.0
23/05:00am 19.0 19.4 16.4 85 1.6 S 9 13 5 7 1012.1 1011.9 0.0
23/04:30am 19.0 19.0 16.2 84 1.7 S 11 13 6 7 1012.0 1011.8 0.0
23/04:00am 19.2 19.3 16.4 84 1.7 S 11 13 6 7 1011.8 1011.6 0.0
23/03:30am 19.2 18.9 16.4 84 1.7 SSW 13 15 7 8 1011.7 1011.5 0.0
23/03:00am 19.1 18.7 16.1 83 1.8 S 13 17 7 9 1011.6 1011.4 0.0
23/02:30am 19.4 19.0 16.1 81 2.0 S 13 17 7 9 1011.7 1011.5 0.0
23/02:00am 19.5 19.5 16.2 81 2.0 SSW 11 15 6 8 1011.9 1011.7 0.0
23/01:30am 19.7 19.3 16.2 80 2.1 SSW 13 15 7 8 1012.1 1011.9 0.0
23/01:00am 20.0 19.6 16.2 79 2.3 SSW 13 15 7 8 1012.4 1012.2 0.0
23/12:30am 20.6 20.4 16.6 78 2.4 SSW 13 17 7 9 1012.6 1012.4 0.0
23/12:00am 20.8 21.9 17.2 80 2.2 S 7 9 4 5 1012.7 1012.5 0.0

Other formats

Comma delimited format used in spreadsheet applications
http://www.bom.gov.au/fwo/IDQ60801/IDQ60801.94387.axf

JavaScript Object Notation format (JSON) in row-major order
http://www.bom.gov.au/fwo/IDQ60801/IDQ60801.94387.json

Data quality

Most of these data are generated automatically and are frequently updated. Quality checks on data are not normally performed. It is possible for incorrect values to appear. Refer to information at About Latest Weather Observations and please check the disclaimer before using these data.